TimeMST,TemperatureF,Dew PointF,Humidity,Sea Level PressureIn,VisibilityMPH,Wind Direction,Wind SpeedMPH,Gust SpeedMPH,PrecipitationIn,Events,Conditions,WindDirDegrees,DateUTC
12:53 AM,39.9,19.0,43,29.96,10.0,WSW,5.8,-,N/A,,Clear,250,2012-11-30 07:53:00
1:53 AM,39.9,19.9,45,29.96,10.0,West,3.5,-,N/A,,Clear,260,2012-11-30 08:53:00
2:53 AM,42.1,19.9,41,29.96,10.0,SW,12.7,-,N/A,,Overcast,220,2012-11-30 09:53:00
3:53 AM,41.0,19.0,41,29.96,10.0,SW,11.5,-,N/A,,Partly Cloudy,220,2012-11-30 10:53:00
4:53 AM,39.9,19.0,43,29.96,10.0,SW,9.2,-,N/A,,Clear,230,2012-11-30 11:53:00
5:53 AM,39.0,19.0,45,29.97,10.0,SSW,5.8,-,N/A,,Clear,200,2012-11-30 12:53:00
6:53 AM,37.0,19.0,48,30.00,10.0,WSW,5.8,-,N/A,,Clear,250,2012-11-30 13:53:00
7:53 AM,37.0,19.0,48,30.00,10.0,North,4.6,-,N/A,,Clear,360,2012-11-30 14:53:00
8:53 AM,46.0,18.0,33,29.96,10.0,SW,13.8,-,N/A,,Clear,230,2012-11-30 15:53:00
9:53 AM,50.0,18.0,28,29.94,10.0,East,5.8,-,N/A,,Clear,90,2012-11-30 16:53:00
10:53 AM,52.0,18.0,26,29.89,10.0,South,9.2,-,N/A,,Clear,180,2012-11-30 17:53:00
11:53 AM,54.0,18.0,24,29.83,10.0,South,11.5,-,N/A,,Clear,180,2012-11-30 18:53:00
12:53 PM,54.0,18.0,24,29.82,10.0,SSW,13.8,-,N/A,,Clear,200,2012-11-30 19:53:00
1:53 PM,54.0,17.1,23,29.79,10.0,SSW,12.7,-,N/A,,Clear,200,2012-11-30 20:53:00
2:53 PM,54.0,18.0,24,29.78,10.0,South,12.7,-,N/A,,Clear,190,2012-11-30 21:53:00
3:53 PM,51.1,18.0,27,29.79,10.0,SSW,12.7,-,N/A,,Clear,200,2012-11-30 22:53:00
4:53 PM,46.9,18.0,32,29.80,10.0,SW,10.4,-,N/A,,Clear,220,2012-11-30 23:53:00
5:53 PM,45.0,18.0,34,29.84,10.0,West,3.5,-,N/A,,Clear,270,2012-12-01 00:53:00
6:53 PM,44.1,19.0,37,29.84,10.0,Calm,Calm,-,N/A,,Clear,0,2012-12-01 01:53:00
7:53 PM,37.9,18.0,45,29.86,10.0,WNW,9.2,-,N/A,,Clear,290,2012-12-01 02:53:00
8:53 PM,39.0,18.0,43,29.81,10.0,South,8.1,-,N/A,,Clear,190,2012-12-01 03:53:00
9:53 PM,39.9,18.0,41,29.78,10.0,NW,4.6,-,N/A,,Clear,320,2012-12-01 04:53:00
10:53 PM,37.9,19.0,47,29.79,10.0,Calm,Calm,-,N/A,,Clear,0,2012-12-01 05:53:00
11:53 PM,41.0,19.0,41,29.77,10.0,NW,3.5,-,N/A,,Clear,310,2012-12-01 06:53:00